createdAt,value
2023-03-13T00:02:01.061Z,3.22
2023-03-13T00:04:28.200Z,3.03
2023-03-13T00:06:55.417Z,3.80
2023-03-13T00:09:23.430Z,5.10
2023-03-13T00:11:50.959Z,5.05
2023-03-13T00:14:18.041Z,6.22
2023-03-13T00:16:45.248Z,3.63
2023-03-13T00:19:12.504Z,3.20
2023-03-13T00:21:41.177Z,3.00
2023-03-13T00:24:10.077Z,6.18
2023-03-13T00:26:37.134Z,6.07
2023-03-13T00:29:04.872Z,5.10
2023-03-13T00:31:32.331Z,6.53
2023-03-13T00:34:00.695Z,6.43
2023-03-13T00:36:29.142Z,4.47
2023-03-13T00:38:56.675Z,3.63
2023-03-13T00:41:24.946Z,4.85
2023-03-13T00:43:52.544Z,4.63
2023-03-13T00:46:21.321Z,4.10
2023-03-13T00:48:48.895Z,3.75
2023-03-13T00:51:17.269Z,4.72
2023-03-13T00:53:44.893Z,4.20
2023-03-13T00:56:13.584Z,4.45
2023-03-13T00:58:41.664Z,2.80
2023-03-13T01:01:13.913Z,4.03
2023-03-13T01:03:42.010Z,4.00
2023-03-13T01:06:12.394Z,4.22
2023-03-13T01:08:39.600Z,4.20
2023-03-13T01:11:14.088Z,4.35
2023-03-13T01:13:41.238Z,5.47
2023-03-13T01:16:10.075Z,5.38
2023-03-13T01:18:38.120Z,4.97
2023-03-13T01:21:05.712Z,3.88
2023-03-13T01:23:32.849Z,3.00
2023-03-13T01:25:59.988Z,3.67
2023-03-13T01:28:27.603Z,4.45
2023-03-13T01:30:54.933Z,5.20
2023-03-13T01:33:22.123Z,4.68
2023-03-13T01:35:49.340Z,3.13
2023-03-13T01:38:16.502Z,3.53
2023-03-13T01:40:50.219Z,4.97
2023-03-13T01:43:26.434Z,4.07
2023-03-13T01:45:57.196Z,3.88
2023-03-13T01:48:30.045Z,3.33
2023-03-13T01:50:57.669Z,3.33
2023-03-13T01:53:25.641Z,5.07
2023-03-13T01:55:54.065Z,4.03
2023-03-13T01:58:21.439Z,4.10
2023-03-13T02:00:49.240Z,2.42
2023-03-13T02:03:19.475Z,3.40
2023-03-13T02:05:49.117Z,3.45
2023-03-13T02:08:25.359Z,2.75
2023-03-13T02:10:54.838Z,4.13
2023-03-13T02:13:22.075Z,3.78
2023-03-13T02:15:49.504Z,4.18
2023-03-13T02:18:17.225Z,3.28
2023-03-13T02:20:44.630Z,3.85
2023-03-13T02:23:33.272Z,4.47
2023-03-13T02:26:01.034Z,4.32
2023-03-13T02:28:36.252Z,4.32
2023-03-13T02:31:03.493Z,6.97
2023-03-13T02:33:32.381Z,3.17
2023-03-13T02:36:01.550Z,4.80
2023-03-13T02:38:30.725Z,3.92
2023-03-13T02:41:00.032Z,2.47
2023-03-13T02:43:30.915Z,2.63
2023-03-13T02:46:06.234Z,2.50
2023-03-13T02:48:35.694Z,3.33
2023-03-13T02:51:04.424Z,3.10
2023-03-13T02:53:31.719Z,2.53
2023-03-13T02:55:58.867Z,4.72
2023-03-13T02:58:26.094Z,3.63
2023-03-13T03:00:53.695Z,3.28
2023-03-13T03:03:20.834Z,2.20
2023-03-13T03:05:48.047Z,2.92
2023-03-13T03:08:15.158Z,2.42
2023-03-13T03:10:42.265Z,3.00
2023-03-13T03:13:09.421Z,3.25
2023-03-13T03:15:36.600Z,3.08
2023-03-13T03:18:03.719Z,2.63
2023-03-13T03:20:30.812Z,4.32
2023-03-13T03:22:57.913Z,4.65
2023-03-13T03:25:25.050Z,2.88
2023-03-13T03:27:52.229Z,3.83
2023-03-13T03:30:19.393Z,4.07
2023-03-13T03:32:46.631Z,2.28
2023-03-13T03:35:13.797Z,3.00
2023-03-13T03:37:41.013Z,4.65
2023-03-13T03:40:09.383Z,3.40
2023-03-13T03:42:36.517Z,3.67
2023-03-13T03:45:03.938Z,2.83
2023-03-13T03:47:31.092Z,2.50
2023-03-13T03:49:58.193Z,2.80
2023-03-13T03:52:25.339Z,1.52
2023-03-13T03:54:52.450Z,2.35
2023-03-13T03:57:19.732Z,2.55
2023-03-13T03:59:46.963Z,2.05
2023-03-13T04:02:14.091Z,2.65
2023-03-13T04:04:41.213Z,2.45
2023-03-13T04:07:08.317Z,2.20
2023-03-13T04:09:35.457Z,2.63
2023-03-13T04:12:02.624Z,3.97
2023-03-13T04:14:29.700Z,2.53
2023-03-13T04:16:56.853Z,2.45
2023-03-13T04:19:24.025Z,2.10
2023-03-13T04:21:51.164Z,2.28
2023-03-13T04:24:18.300Z,2.97
2023-03-13T04:26:45.429Z,3.20
2023-03-13T04:29:12.516Z,3.30
2023-03-13T04:31:39.635Z,2.60
2023-03-13T04:34:06.724Z,1.95
2023-03-13T04:36:33.795Z,3.88
2023-03-13T04:39:00.925Z,3.40
2023-03-13T04:41:28.452Z,2.38
2023-03-13T04:43:55.604Z,3.05
2023-03-13T04:46:22.752Z,3.25
2023-03-13T04:48:49.891Z,7.40
2023-03-13T04:51:17.073Z,19.15
2023-03-13T04:53:44.754Z,10.43
2023-03-13T04:56:12.867Z,12.90
2023-03-13T04:58:39.997Z,6.25
2023-03-13T05:01:07.185Z,5.70
2023-03-13T05:03:34.364Z,5.97
2023-03-13T05:06:01.609Z,3.08
2023-03-13T05:08:28.756Z,2.92
2023-03-13T05:10:55.993Z,8.13
2023-03-13T05:13:23.105Z,4.32
2023-03-13T05:15:50.815Z,2.75
2023-03-13T05:18:17.957Z,3.95
2023-03-13T05:20:45.129Z,8.40
2023-03-13T05:23:12.378Z,6.90
2023-03-13T05:25:39.519Z,11.18
2023-03-13T05:28:06.695Z,2.95
2023-03-13T05:30:33.945Z,4.40
2023-03-13T05:33:01.140Z,7.05
2023-03-13T05:35:28.332Z,6.03
2023-03-13T05:37:55.636Z,2.20
2023-03-13T05:40:22.786Z,3.47
2023-03-13T05:42:49.902Z,3.45
2023-03-13T05:45:17.192Z,4.32
2023-03-13T05:47:44.273Z,8.13
2023-03-13T05:50:11.653Z,2.83
2023-03-13T05:52:38.761Z,6.03
2023-03-13T05:55:07.167Z,7.97
2023-03-13T05:57:34.312Z,4.88
2023-03-13T06:00:01.593Z,3.65
2023-03-13T06:02:28.871Z,2.53
2023-03-13T06:04:56.201Z,2.80
2023-03-13T06:07:23.419Z,3.20
2023-03-13T06:09:51.687Z,4.53
2023-03-13T06:12:18.875Z,5.15
2023-03-13T06:14:46.026Z,2.83
2023-03-13T06:17:13.148Z,5.43
2023-03-13T06:19:40.328Z,4.97
2023-03-13T06:22:07.456Z,2.08
2023-03-13T06:24:34.688Z,4.75
2023-03-13T06:27:01.753Z,2.67
2023-03-13T06:29:28.923Z,1.60
2023-03-13T06:31:56.210Z,2.67
2023-03-13T06:34:23.498Z,2.25
2023-03-13T06:36:50.608Z,2.17
2023-03-13T06:39:17.786Z,3.15
2023-03-13T06:41:44.874Z,5.90
2023-03-13T06:44:12.004Z,2.60
2023-03-13T06:46:39.338Z,1.90
2023-03-13T06:49:06.628Z,2.78
2023-03-13T06:51:33.796Z,1.85
2023-03-13T06:54:03.100Z,6.20
2023-03-13T06:56:30.240Z,3.13
2023-03-13T06:58:59.533Z,3.67
2023-03-13T07:01:27.290Z,2.85
2023-03-13T07:03:54.805Z,5.40
2023-03-13T07:06:21.971Z,3.17
2023-03-13T07:08:49.777Z,5.18
2023-03-13T07:11:17.974Z,3.63
2023-03-13T07:13:45.200Z,3.33
2023-03-13T07:16:14.332Z,3.60
2023-03-13T07:18:44.971Z,1.90
2023-03-13T07:21:12.803Z,1.98
2023-03-13T07:23:40.410Z,2.58
2023-03-13T07:26:15.319Z,3.65
2023-03-13T07:28:42.671Z,2.33
2023-03-13T07:31:12.627Z,2.65
2023-03-13T07:33:40.050Z,1.92
2023-03-13T07:36:07.464Z,2.00
2023-03-13T07:38:35.427Z,2.35
2023-03-13T07:41:02.629Z,4.40
2023-03-13T07:43:31.383Z,3.10
2023-03-13T07:46:01.686Z,2.40
2023-03-13T07:48:30.828Z,2.80
2023-03-13T07:50:58.173Z,2.15
2023-03-13T07:53:25.363Z,3.25
2023-03-13T07:56:11.808Z,2.40
2023-03-13T07:58:39.638Z,1.90
2023-03-13T08:01:12.965Z,2.17
2023-03-13T08:03:40.386Z,3.70
2023-03-13T08:06:09.404Z,2.22
2023-03-13T08:08:36.559Z,3.13
2023-03-13T08:11:05.163Z,2.28
2023-03-13T08:13:33.248Z,3.08
2023-03-13T08:16:11.440Z,3.30
2023-03-13T08:18:39.713Z,2.38
2023-03-13T08:21:10.896Z,2.15
2023-03-13T08:23:38.606Z,3.80
2023-03-13T08:26:12.921Z,1.25
2023-03-13T08:28:40.692Z,2.90
2023-03-13T08:31:22.119Z,2.42
2023-03-13T08:33:49.531Z,2.05
2023-03-13T08:36:23.185Z,1.65
2023-03-13T08:38:50.482Z,2.95
2023-03-13T08:41:19.150Z,3.20
2023-03-13T08:43:46.927Z,3.00
2023-03-13T08:46:14.710Z,2.85
2023-03-13T08:48:42.486Z,4.18
2023-03-13T08:51:13.894Z,1.52
2023-03-13T08:53:42.345Z,1.75
2023-03-13T08:56:10.367Z,2.33
2023-03-13T08:58:37.502Z,1.48
2023-03-13T09:01:08.949Z,2.40
2023-03-13T09:03:37.907Z,2.45
2023-03-13T09:08:32.553Z,3.05
2023-03-13T09:11:00.832Z,2.33
2023-03-13T09:13:28.812Z,1.95
2023-03-13T09:16:03.027Z,2.08
2023-03-13T09:18:30.865Z,3.95
2023-03-13T09:20:58.132Z,2.25
2023-03-13T09:23:28.863Z,2.05
2023-03-13T09:25:57.172Z,2.35
2023-03-13T09:28:25.449Z,2.83
2023-03-13T09:30:53.138Z,1.52
2023-03-13T09:33:20.984Z,2.60
2023-03-13T09:35:50.911Z,2.88
2023-03-13T09:38:19.278Z,2.60
2023-03-13T09:40:59.675Z,1.50
2023-03-13T09:43:27.110Z,1.80
2023-03-13T09:45:57.985Z,1.52
2023-03-13T09:48:28.097Z,3.67
2023-03-13T09:51:02.029Z,1.80
2023-03-13T09:53:35.016Z,1.83
2023-03-13T09:56:04.583Z,2.75
2023-03-13T09:58:32.868Z,3.17
2023-03-13T10:01:04.246Z,2.40
2023-03-13T10:03:35.370Z,1.83
2023-03-13T10:06:04.913Z,1.42
2023-03-13T10:08:33.314Z,2.05
2023-03-13T10:11:03.488Z,3.60
2023-03-13T10:13:48.518Z,2.28
2023-03-13T10:16:19.510Z,4.13
2023-03-13T10:18:49.208Z,2.05
2023-03-13T10:21:22.702Z,3.20
2023-03-13T10:23:52.832Z,1.95
2023-03-13T10:26:21.936Z,2.45
2023-03-13T10:28:50.953Z,2.42
2023-03-13T10:33:45.313Z,1.50
2023-03-13T10:36:13.467Z,1.52
2023-03-13T10:38:48.701Z,1.52
2023-03-13T10:43:50.559Z,1.50
2023-03-13T10:46:25.383Z,2.13
2023-03-13T10:48:54.530Z,1.95
2023-03-13T10:51:22.861Z,1.55
2023-03-13T10:53:51.521Z,1.98
2023-03-13T10:56:26.401Z,1.95
2023-03-13T10:58:53.984Z,2.40
2023-03-13T11:01:24.446Z,1.83
2023-03-13T11:03:52.831Z,2.15
2023-03-13T11:06:23.145Z,2.00
2023-03-13T11:08:50.352Z,1.95
2023-03-13T11:11:19.281Z,2.05
2023-03-13T11:13:46.624Z,1.77
2023-03-13T11:16:22.034Z,2.20
2023-03-13T11:18:55.311Z,2.05
2023-03-13T11:21:34.678Z,2.38
2023-03-13T11:24:07.532Z,2.97
2023-03-13T11:26:34.632Z,2.08
2023-03-13T11:29:19.752Z,1.40
2023-03-13T11:31:48.113Z,2.38
2023-03-13T11:34:28.014Z,1.73
2023-03-13T11:37:09.934Z,2.00
2023-03-13T11:39:44.726Z,1.70
2023-03-13T11:42:41.442Z,1.50
2023-03-13T11:45:27.071Z,2.10
2023-03-13T11:48:12.734Z,3.67
2023-03-13T11:50:55.348Z,3.03
2023-03-13T11:53:31.446Z,2.70
2023-03-13T11:56:05.121Z,2.67
2023-03-13T11:58:50.876Z,1.88
2023-03-13T12:01:19.260Z,2.10
2023-03-13T12:03:55.452Z,1.77
2023-03-13T12:06:31.590Z,2.95
2023-03-13T12:09:02.244Z,2.50
2023-03-13T12:11:38.053Z,1.92
2023-03-13T12:14:07.430Z,1.70
2023-03-13T12:16:43.261Z,3.25
2023-03-13T12:19:12.539Z,2.35
2023-03-13T12:21:43.520Z,2.85
2023-03-13T12:24:20.702Z,2.92
2023-03-13T12:27:02.641Z,2.72
2023-03-13T12:29:49.285Z,2.55
2023-03-13T12:32:35.096Z,1.63
2023-03-13T12:35:08.769Z,2.08
2023-03-13T12:37:35.869Z,1.27
2023-03-13T12:40:12.086Z,2.95
2023-03-13T12:42:44.837Z,2.28
2023-03-13T12:45:16.646Z,2.42
2023-03-13T12:47:58.843Z,1.92
2023-03-13T12:50:38.623Z,2.67
2023-03-13T12:53:09.098Z,1.63
2023-03-13T12:55:39.088Z,2.65
2023-03-13T12:58:21.333Z,1.63
2023-03-13T13:00:49.526Z,1.63
2023-03-13T13:03:16.696Z,1.35
2023-03-13T13:06:02.581Z,2.42
2023-03-13T13:08:33.631Z,2.88
2023-03-13T13:11:19.554Z,1.63
2023-03-13T13:13:46.700Z,1.77
2023-03-13T13:16:18.472Z,2.03
2023-03-13T13:18:45.702Z,2.30
2023-03-13T13:21:15.757Z,2.28
2023-03-13T13:23:46.918Z,2.17
2023-03-13T13:26:37.396Z,1.67
2023-03-13T13:29:13.625Z,2.75
2023-03-13T13:31:51.009Z,2.22
2023-03-13T13:34:31.224Z,1.90
2023-03-13T13:36:59.431Z,3.22
2023-03-13T13:39:29.420Z,2.72
2023-03-13T13:41:56.737Z,1.55
2023-03-13T13:44:25.954Z,1.80
2023-03-13T13:46:54.165Z,1.85
2023-03-13T13:49:22.456Z,2.15
2023-03-13T13:52:04.977Z,2.60
2023-03-13T13:54:35.980Z,1.90
2023-03-13T13:57:09.164Z,3.30
2023-03-13T13:59:47.572Z,2.25
2023-03-13T14:02:19.994Z,2.70
2023-03-13T14:04:53.444Z,2.22
2023-03-13T14:07:25.448Z,2.42
2023-03-13T14:09:58.585Z,1.88
2023-03-13T14:12:25.701Z,2.40
2023-03-13T14:15:09.175Z,3.00
2023-03-13T14:17:40.836Z,2.10
2023-03-13T14:20:17.402Z,1.60
2023-03-13T14:22:48.539Z,3.78
2023-03-13T14:25:15.773Z,1.48
2023-03-13T14:27:46.703Z,1.25
2023-03-13T14:30:15.769Z,1.45
2023-03-13T14:32:43.060Z,1.50
2023-03-13T14:35:12.101Z,2.85
2023-03-13T14:37:43.038Z,3.83
2023-03-13T14:40:19.193Z,2.20
2023-03-13T14:42:48.272Z,2.92
2023-03-13T14:45:16.271Z,1.92
2023-03-13T14:47:43.469Z,1.88
2023-03-13T14:50:12.535Z,2.08
2023-03-13T14:52:45.123Z,3.75
2023-03-13T14:55:24.485Z,2.25
2023-03-13T14:57:55.692Z,2.42
2023-03-13T15:00:29.693Z,1.95
2023-03-13T15:03:20.000Z,2.85
2023-03-13T15:05:48.245Z,2.40
2023-03-13T15:08:19.743Z,2.78
2023-03-13T15:10:47.520Z,3.00
2023-03-13T15:13:15.705Z,2.50
2023-03-13T15:15:42.965Z,2.95
2023-03-13T15:18:24.125Z,1.88
2023-03-13T15:20:55.710Z,3.97
2023-03-13T15:23:23.245Z,2.15
2023-03-13T15:25:50.608Z,2.47
2023-03-13T15:28:22.829Z,2.10
2023-03-13T15:30:54.121Z,2.38
2023-03-13T15:33:22.668Z,2.83
2023-03-13T15:35:50.635Z,3.42
2023-03-13T15:38:22.555Z,2.17
2023-03-13T15:40:49.855Z,2.72
2023-03-13T15:43:17.643Z,2.72
2023-03-13T15:45:45.871Z,2.67
2023-03-13T15:48:16.145Z,2.50
2023-03-13T15:50:44.043Z,2.15
2023-03-13T15:53:25.330Z,3.22
2023-03-13T15:58:19.738Z,3.15
2023-03-13T16:00:48.305Z,2.05
2023-03-13T16:03:26.267Z,3.38
2023-03-13T16:05:54.220Z,3.05
2023-03-13T16:08:35.374Z,3.60
2023-03-13T16:11:04.541Z,1.83
2023-03-13T16:13:31.873Z,3.97
2023-03-13T16:15:59.012Z,2.92
2023-03-13T16:18:26.611Z,1.73
2023-03-13T16:20:54.377Z,3.05
2023-03-13T16:23:21.521Z,4.00
2023-03-13T16:25:49.460Z,3.25
2023-03-13T16:28:16.865Z,3.03
2023-03-13T16:30:44.304Z,2.75
2023-03-13T16:33:11.779Z,3.45
2023-03-13T16:35:39.210Z,3.72
2023-03-13T16:38:08.470Z,4.30
2023-03-13T16:40:36.048Z,2.42
2023-03-13T16:43:03.395Z,4.72
2023-03-13T16:45:30.684Z,4.47
2023-03-13T16:47:57.832Z,6.95
2023-03-13T16:50:24.941Z,3.72
2023-03-13T16:52:52.631Z,4.20
2023-03-13T16:55:20.161Z,7.63
2023-03-13T16:57:47.454Z,4.50
2023-03-13T17:00:19.407Z,5.95
2023-03-13T17:02:46.673Z,4.78
2023-03-13T17:05:15.937Z,3.58
2023-03-13T17:07:44.588Z,3.53
2023-03-13T17:10:16.688Z,2.88
2023-03-13T17:12:43.912Z,5.65
2023-03-13T17:15:11.338Z,4.13
2023-03-13T17:17:38.767Z,5.18
2023-03-13T17:20:09.694Z,5.53
2023-03-13T17:22:36.866Z,5.05
2023-03-13T17:25:04.044Z,4.80
2023-03-13T17:27:32.601Z,5.80
2023-03-13T17:30:01.003Z,8.10
2023-03-13T17:32:30.194Z,6.35
2023-03-13T17:34:58.651Z,5.97
2023-03-13T17:37:26.658Z,8.35
2023-03-13T17:39:53.776Z,6.13
2023-03-13T17:42:25.235Z,6.43
2023-03-13T17:44:55.348Z,7.20
2023-03-13T17:47:28.267Z,5.28
2023-03-13T17:49:58.693Z,6.57
2023-03-13T17:52:25.891Z,6.38
2023-03-13T17:54:53.891Z,4.95
2023-03-13T17:57:22.582Z,5.22
2023-03-13T17:59:49.953Z,5.80
2023-03-13T18:02:19.189Z,5.70
2023-03-13T18:04:52.294Z,6.30
2023-03-13T18:07:27.086Z,4.72
2023-03-13T18:09:55.821Z,8.13
2023-03-13T18:12:25.788Z,6.50
2023-03-13T18:14:52.907Z,3.70
2023-03-13T18:17:21.817Z,7.43
2023-03-13T18:19:49.851Z,7.35
2023-03-13T18:22:25.303Z,3.88
2023-03-13T18:24:52.824Z,4.35
2023-03-13T18:27:21.805Z,6.13
2023-03-13T18:32:19.518Z,9.73
2023-03-13T18:34:46.728Z,5.78
2023-03-13T18:37:19.633Z,5.97
2023-03-13T18:39:49.819Z,3.88
2023-03-13T18:42:17.066Z,5.00
2023-03-13T18:44:44.169Z,5.93
2023-03-13T18:47:15.732Z,4.32
2023-03-13T18:49:42.905Z,4.40
2023-03-13T18:52:11.422Z,6.13
2023-03-13T18:54:38.685Z,5.20
2023-03-13T18:57:20.345Z,5.55
2023-03-13T18:59:47.559Z,3.60
2023-03-13T19:02:15.642Z,7.72
2023-03-13T19:04:43.212Z,6.75
2023-03-13T19:07:30.698Z,5.88
2023-03-13T19:09:57.868Z,5.68
2023-03-13T19:12:25.068Z,4.40
2023-03-13T19:14:52.316Z,5.55
2023-03-13T19:17:29.635Z,5.78
2023-03-13T19:20:00.002Z,6.22
2023-03-13T19:22:27.339Z,3.88
2023-03-13T19:24:55.634Z,5.55
2023-03-13T19:27:22.810Z,6.68
2023-03-13T19:29:50.191Z,3.88
2023-03-13T19:32:18.807Z,4.93
2023-03-13T19:34:46.135Z,5.97
2023-03-13T19:37:14.194Z,4.85
2023-03-13T19:39:41.874Z,4.68
2023-03-13T19:42:09.599Z,5.47
2023-03-13T19:44:37.109Z,3.80
2023-03-13T19:47:04.614Z,6.70
2023-03-13T19:49:32.086Z,3.55
2023-03-13T19:52:00.124Z,3.65
2023-03-13T19:54:27.278Z,4.60
2023-03-13T19:56:54.392Z,6.35
2023-03-13T19:59:28.343Z,4.18
2023-03-13T20:01:58.283Z,6.47
2023-03-13T20:04:25.623Z,3.88
2023-03-13T20:06:52.706Z,5.43
2023-03-13T20:09:23.260Z,6.93
2023-03-13T20:11:50.438Z,6.35
2023-03-13T20:14:17.673Z,5.93
2023-03-13T20:16:47.412Z,5.63
2023-03-13T20:19:14.660Z,3.55
2023-03-13T20:21:42.843Z,6.70
2023-03-13T20:24:10.657Z,4.82
2023-03-13T20:26:38.079Z,5.35
2023-03-13T20:29:05.576Z,5.68
2023-03-13T20:31:33.169Z,4.10
2023-03-13T20:34:00.714Z,5.40
2023-03-13T20:36:28.216Z,3.42
2023-03-13T20:38:55.769Z,5.35
2023-03-13T20:41:25.723Z,5.57
2023-03-13T20:43:53.328Z,4.22
2023-03-13T20:46:21.142Z,6.97
2023-03-13T20:48:48.798Z,6.63
2023-03-13T20:51:16.372Z,4.72
2023-03-13T20:53:43.542Z,4.55
2023-03-13T20:56:11.528Z,6.07
2023-03-13T20:58:39.118Z,10.40
2023-03-13T21:01:07.597Z,14.98
2023-03-13T21:03:35.943Z,8.23
2023-03-13T21:06:12.974Z,7.28
2023-03-13T21:08:40.267Z,8.02
2023-03-13T21:11:17.744Z,11.93
2023-03-13T21:13:45.244Z,11.55
2023-03-13T21:16:15.677Z,16.95
2023-03-13T21:18:43.437Z,10.70
2023-03-13T21:21:14.890Z,10.52
2023-03-13T21:23:42.138Z,9.93
2023-03-13T21:26:09.440Z,8.18
2023-03-13T21:28:36.938Z,17.30
2023-03-13T21:31:14.336Z,21.40
2023-03-13T21:33:41.957Z,16.50
2023-03-13T21:36:10.056Z,10.90
2023-03-13T21:38:37.371Z,14.25
2023-03-13T21:41:11.661Z,8.45
2023-03-13T21:43:41.409Z,13.23
2023-03-13T21:46:10.671Z,13.00
2023-03-13T21:48:41.682Z,12.10
2023-03-13T21:51:09.568Z,13.18
2023-03-13T21:53:36.951Z,10.45
2023-03-13T21:56:04.742Z,9.43
2023-03-13T21:58:31.981Z,7.45
2023-03-13T22:00:59.730Z,7.82
2023-03-13T22:03:26.998Z,8.43
2023-03-13T22:05:54.211Z,7.32
2023-03-13T22:08:21.334Z,6.97
2023-03-13T22:10:55.030Z,6.80
2023-03-13T22:13:22.450Z,7.70
2023-03-13T22:15:50.542Z,7.95
2023-03-13T22:18:18.128Z,9.38
2023-03-13T22:20:45.221Z,8.00
2023-03-13T22:23:12.819Z,10.55
2023-03-13T22:25:40.994Z,7.70
2023-03-13T22:28:08.155Z,8.23
2023-03-13T22:30:35.823Z,8.02
2023-03-13T22:33:06.663Z,5.57
2023-03-13T22:35:34.613Z,7.82
2023-03-13T22:38:01.937Z,8.40
2023-03-13T22:40:29.050Z,8.18
2023-03-13T22:42:56.204Z,4.93
2023-03-13T22:45:23.754Z,7.93
2023-03-13T22:47:51.328Z,5.97
2023-03-13T22:50:20.866Z,5.05
2023-03-13T22:52:48.058Z,7.97
2023-03-13T22:55:15.228Z,5.45
2023-03-13T22:57:42.346Z,7.68
2023-03-13T23:00:09.763Z,6.75
2023-03-13T23:02:36.902Z,5.78
2023-03-13T23:05:04.098Z,6.43
2023-03-13T23:07:32.236Z,4.25
2023-03-13T23:09:59.776Z,4.40
2023-03-13T23:12:30.778Z,3.90
2023-03-13T23:14:59.617Z,7.13
2023-03-13T23:17:27.525Z,5.38
2023-03-13T23:19:54.707Z,5.28
2023-03-13T23:22:21.933Z,7.07
2023-03-13T23:24:49.257Z,5.18
2023-03-13T23:27:16.353Z,6.18
2023-03-13T23:29:43.727Z,5.75
2023-03-13T23:32:10.845Z,3.83
2023-03-13T23:34:37.999Z,4.50
2023-03-13T23:37:05.160Z,5.72
2023-03-13T23:39:32.398Z,7.45
2023-03-13T23:41:59.544Z,4.65
2023-03-13T23:44:26.705Z,3.83
2023-03-13T23:46:53.797Z,4.28
2023-03-13T23:49:20.955Z,5.55
2023-03-13T23:51:48.060Z,4.45
2023-03-13T23:54:15.152Z,5.25
2023-03-13T23:56:42.284Z,5.80
2023-03-13T23:59:09.376Z,5.47
